sensor_id;sensor_type;location;lat;lon;timestamp;P1;durP1;ratioP1;P2;durP2;ratioP2
45762;SDS011;37512;52.408;13.356;2023-10-08T00:00:13;7.05;;;2.63;;
45762;SDS011;37512;52.408;13.356;2023-10-08T00:04:33;7.07;;;2.28;;
45762;SDS011;37512;52.408;13.356;2023-10-08T00:08:38;7.05;;;2.30;;
45762;SDS011;37512;52.408;13.356;2023-10-08T00:12:40;5.68;;;1.98;;
45762;SDS011;37512;52.408;13.356;2023-10-08T00:16:41;5.63;;;1.92;;
45762;SDS011;37512;52.408;13.356;2023-10-08T00:20:43;3.45;;;1.83;;
45762;SDS011;37512;52.408;13.356;2023-10-08T00:24:51;4.70;;;2.00;;
45762;SDS011;37512;52.408;13.356;2023-10-08T00:29:05;6.07;;;1.70;;
45762;SDS011;37512;52.408;13.356;2023-10-08T00:33:11;5.85;;;2.10;;
45762;SDS011;37512;52.408;13.356;2023-10-08T00:37:13;4.93;;;1.50;;
45762;SDS011;37512;52.408;13.356;2023-10-08T00:41:18;3.88;;;1.67;;
45762;SDS011;37512;52.408;13.356;2023-10-08T00:45:29;3.85;;;1.65;;
45762;SDS011;37512;52.408;13.356;2023-10-08T00:49:31;7.57;;;1.70;;
45762;SDS011;37512;52.408;13.356;2023-10-08T00:53:43;4.82;;;1.50;;
45762;SDS011;37512;52.408;13.356;2023-10-08T00:57:46;6.10;;;1.75;;
45762;SDS011;37512;52.408;13.356;2023-10-08T01:01:50;5.32;;;1.63;;
45762;SDS011;37512;52.408;13.356;2023-10-08T01:05:54;3.70;;;1.70;;
45762;SDS011;37512;52.408;13.356;2023-10-08T01:09:58;4.63;;;1.88;;
45762;SDS011;37512;52.408;13.356;2023-10-08T01:14:01;6.22;;;1.60;;
45762;SDS011;37512;52.408;13.356;2023-10-08T01:18:03;4.70;;;1.75;;
45762;SDS011;37512;52.408;13.356;2023-10-08T01:22:07;10.07;;;3.13;;
45762;SDS011;37512;52.408;13.356;2023-10-08T01:26:14;4.97;;;1.95;;
45762;SDS011;37512;52.408;13.356;2023-10-08T01:30:24;10.60;;;2.58;;
45762;SDS011;37512;52.408;13.356;2023-10-08T01:34:25;5.28;;;2.20;;
45762;SDS011;37512;52.408;13.356;2023-10-08T01:38:31;6.95;;;2.25;;
45762;SDS011;37512;52.408;13.356;2023-10-08T01:42:36;8.18;;;2.85;;
45762;SDS011;37512;52.408;13.356;2023-10-08T01:46:40;8.73;;;2.47;;
45762;SDS011;37512;52.408;13.356;2023-10-08T01:50:42;5.63;;;1.98;;
45762;SDS011;37512;52.408;13.356;2023-10-08T01:54:47;4.95;;;1.77;;
45762;SDS011;37512;52.408;13.356;2023-10-08T01:58:50;7.53;;;2.10;;
45762;SDS011;37512;52.408;13.356;2023-10-08T02:02:51;7.22;;;1.75;;
45762;SDS011;37512;52.408;13.356;2023-10-08T02:06:55;8.52;;;2.38;;
45762;SDS011;37512;52.408;13.356;2023-10-08T02:10:57;7.32;;;2.53;;
45762;SDS011;37512;52.408;13.356;2023-10-08T02:14:59;11.05;;;2.65;;
45762;SDS011;37512;52.408;13.356;2023-10-08T02:19:04;10.13;;;2.28;;
45762;SDS011;37512;52.408;13.356;2023-10-08T02:23:05;6.13;;;2.33;;
45762;SDS011;37512;52.408;13.356;2023-10-08T02:27:06;5.85;;;2.97;;
45762;SDS011;37512;52.408;13.356;2023-10-08T02:31:08;11.90;;;3.38;;
45762;SDS011;37512;52.408;13.356;2023-10-08T02:35:10;10.85;;;3.80;;
45762;SDS011;37512;52.408;13.356;2023-10-08T02:39:14;12.05;;;3.65;;
45762;SDS011;37512;52.408;13.356;2023-10-08T02:43:22;7.03;;;3.58;;
45762;SDS011;37512;52.408;13.356;2023-10-08T02:47:24;12.05;;;3.55;;
45762;SDS011;37512;52.408;13.356;2023-10-08T02:51:26;12.65;;;4.18;;
45762;SDS011;37512;52.408;13.356;2023-10-08T02:55:27;14.82;;;4.00;;
45762;SDS011;37512;52.408;13.356;2023-10-08T02:59:36;13.30;;;4.07;;
45762;SDS011;37512;52.408;13.356;2023-10-08T03:03:45;9.98;;;4.07;;
45762;SDS011;37512;52.408;13.356;2023-10-08T03:07:49;10.25;;;3.58;;
45762;SDS011;37512;52.408;13.356;2023-10-08T03:11:52;9.75;;;3.67;;
45762;SDS011;37512;52.408;13.356;2023-10-08T03:15:54;12.75;;;3.90;;
45762;SDS011;37512;52.408;13.356;2023-10-08T03:20:02;14.85;;;4.20;;
45762;SDS011;37512;52.408;13.356;2023-10-08T03:24:24;13.35;;;4.05;;
45762;SDS011;37512;52.408;13.356;2023-10-08T03:28:31;12.35;;;4.00;;
45762;SDS011;37512;52.408;13.356;2023-10-08T03:32:36;9.52;;;4.22;;
45762;SDS011;37512;52.408;13.356;2023-10-08T03:36:38;13.05;;;4.72;;
45762;SDS011;37512;52.408;13.356;2023-10-08T03:40:46;12.88;;;3.63;;
45762;SDS011;37512;52.408;13.356;2023-10-08T03:44:51;10.18;;;3.75;;
45762;SDS011;37512;52.408;13.356;2023-10-08T03:48:53;10.65;;;4.30;;
45762;SDS011;37512;52.408;13.356;2023-10-08T03:52:58;9.55;;;3.70;;
45762;SDS011;37512;52.408;13.356;2023-10-08T03:57:00;14.73;;;4.45;;
45762;SDS011;37512;52.408;13.356;2023-10-08T04:01:02;13.68;;;3.88;;
45762;SDS011;37512;52.408;13.356;2023-10-08T04:05:11;8.85;;;4.30;;
45762;SDS011;37512;52.408;13.356;2023-10-08T04:09:20;11.25;;;4.05;;
45762;SDS011;37512;52.408;13.356;2023-10-08T04:13:22;15.40;;;4.07;;
45762;SDS011;37512;52.408;13.356;2023-10-08T04:17:24;13.02;;;4.60;;
45762;SDS011;37512;52.408;13.356;2023-10-08T04:21:26;8.80;;;4.00;;
45762;SDS011;37512;52.408;13.356;2023-10-08T04:25:30;9.38;;;4.70;;
45762;SDS011;37512;52.408;13.356;2023-10-08T04:29:33;10.82;;;4.20;;
45762;SDS011;37512;52.408;13.356;2023-10-08T04:33:38;9.65;;;4.60;;
45762;SDS011;37512;52.408;13.356;2023-10-08T04:37:40;9.65;;;4.43;;
45762;SDS011;37512;52.408;13.356;2023-10-08T04:41:42;14.35;;;4.47;;
45762;SDS011;37512;52.408;13.356;2023-10-08T04:45:44;10.63;;;4.60;;
45762;SDS011;37512;52.408;13.356;2023-10-08T04:49:47;9.27;;;4.22;;
45762;SDS011;37512;52.408;13.356;2023-10-08T04:53:49;12.57;;;4.80;;
45762;SDS011;37512;52.408;13.356;2023-10-08T04:57:50;16.15;;;4.97;;
45762;SDS011;37512;52.408;13.356;2023-10-08T05:01:53;14.05;;;5.35;;
45762;SDS011;37512;52.408;13.356;2023-10-08T05:06:13;16.70;;;4.93;;
45762;SDS011;37512;52.408;13.356;2023-10-08T05:10:30;11.63;;;3.85;;
45762;SDS011;37512;52.408;13.356;2023-10-08T05:14:46;12.35;;;4.82;;
45762;SDS011;37512;52.408;13.356;2023-10-08T05:18:57;13.85;;;4.97;;
45762;SDS011;37512;52.408;13.356;2023-10-08T05:23:26;10.55;;;4.82;;
45762;SDS011;37512;52.408;13.356;2023-10-08T05:27:34;10.05;;;4.88;;
45762;SDS011;37512;52.408;13.356;2023-10-08T05:31:49;15.95;;;4.97;;
45762;SDS011;37512;52.408;13.356;2023-10-08T05:36:11;12.68;;;5.25;;
45762;SDS011;37512;52.408;13.356;2023-10-08T05:40:19;11.10;;;4.57;;
45762;SDS011;37512;52.408;13.356;2023-10-08T05:44:44;11.15;;;4.68;;
45762;SDS011;37512;52.408;13.356;2023-10-08T05:49:12;7.15;;;3.95;;
45762;SDS011;37512;52.408;13.356;2023-10-08T05:53:14;11.50;;;4.55;;
45762;SDS011;37512;52.408;13.356;2023-10-08T05:57:31;11.25;;;5.00;;
45762;SDS011;37512;52.408;13.356;2023-10-08T06:01:47;14.68;;;4.93;;
45762;SDS011;37512;52.408;13.356;2023-10-08T06:06:03;12.63;;;5.63;;
45762;SDS011;37512;52.408;13.356;2023-10-08T06:10:13;14.15;;;4.82;;
45762;SDS011;37512;52.408;13.356;2023-10-08T06:14:34;9.75;;;5.35;;
45762;SDS011;37512;52.408;13.356;2023-10-08T06:18:59;12.77;;;5.90;;
45762;SDS011;37512;52.408;13.356;2023-10-08T06:23:01;12.27;;;5.60;;
45762;SDS011;37512;52.408;13.356;2023-10-08T06:27:08;16.83;;;4.60;;
45762;SDS011;37512;52.408;13.356;2023-10-08T06:31:09;14.40;;;5.13;;
45762;SDS011;37512;52.408;13.356;2023-10-08T06:35:18;12.73;;;4.63;;
45762;SDS011;37512;52.408;13.356;2023-10-08T06:39:23;8.70;;;4.03;;
45762;SDS011;37512;52.408;13.356;2023-10-08T06:43:49;11.23;;;3.95;;
45762;SDS011;37512;52.408;13.356;2023-10-08T06:47:52;9.30;;;3.60;;
45762;SDS011;37512;52.408;13.356;2023-10-08T06:51:54;8.55;;;3.78;;
45762;SDS011;37512;52.408;13.356;2023-10-08T06:55:56;9.70;;;3.72;;
45762;SDS011;37512;52.408;13.356;2023-10-08T06:59:58;11.27;;;3.53;;
45762;SDS011;37512;52.408;13.356;2023-10-08T07:04:01;5.72;;;3.10;;
45762;SDS011;37512;52.408;13.356;2023-10-08T07:08:08;8.35;;;3.10;;
45762;SDS011;37512;52.408;13.356;2023-10-08T07:12:09;9.05;;;3.70;;
45762;SDS011;37512;52.408;13.356;2023-10-08T07:16:15;8.90;;;2.63;;
45762;SDS011;37512;52.408;13.356;2023-10-08T07:20:19;9.85;;;3.30;;
45762;SDS011;37512;52.408;13.356;2023-10-08T07:24:23;5.72;;;2.72;;
45762;SDS011;37512;52.408;13.356;2023-10-08T07:28:25;8.52;;;2.47;;
45762;SDS011;37512;52.408;13.356;2023-10-08T07:32:27;7.07;;;2.00;;
45762;SDS011;37512;52.408;13.356;2023-10-08T07:36:32;8.48;;;1.90;;
45762;SDS011;37512;52.408;13.356;2023-10-08T07:40:33;6.45;;;2.30;;
45762;SDS011;37512;52.408;13.356;2023-10-08T07:44:38;3.47;;;2.05;;
45762;SDS011;37512;52.408;13.356;2023-10-08T07:48:41;3.03;;;1.52;;
45762;SDS011;37512;52.408;13.356;2023-10-08T07:52:44;5.63;;;1.42;;
45762;SDS011;37512;52.408;13.356;2023-10-08T07:56:46;2.97;;;1.42;;
45762;SDS011;37512;52.408;13.356;2023-10-08T08:00:49;5.20;;;1.75;;
45762;SDS011;37512;52.408;13.356;2023-10-08T08:04:53;3.90;;;1.58;;
45762;SDS011;37512;52.408;13.356;2023-10-08T08:08:55;6.38;;;1.48;;
45762;SDS011;37512;52.408;13.356;2023-10-08T08:12:56;5.50;;;1.30;;
45762;SDS011;37512;52.408;13.356;2023-10-08T08:17:02;4.20;;;1.20;;
45762;SDS011;37512;52.408;13.356;2023-10-08T08:21:15;3.42;;;1.50;;
45762;SDS011;37512;52.408;13.356;2023-10-08T08:25:20;5.28;;;1.45;;
45762;SDS011;37512;52.408;13.356;2023-10-08T08:29:53;4.15;;;1.17;;
45762;SDS011;37512;52.408;13.356;2023-10-08T08:33:58;3.67;;;1.42;;
45762;SDS011;37512;52.408;13.356;2023-10-08T08:38:18;3.30;;;1.30;;
45762;SDS011;37512;52.408;13.356;2023-10-08T08:42:21;3.42;;;1.40;;
45762;SDS011;37512;52.408;13.356;2023-10-08T08:46:35;2.13;;;1.13;;
45762;SDS011;37512;52.408;13.356;2023-10-08T08:50:43;3.95;;;1.40;;
45762;SDS011;37512;52.408;13.356;2023-10-08T08:54:59;3.22;;;1.25;;
45762;SDS011;37512;52.408;13.356;2023-10-08T08:59:06;6.63;;;3.22;;
45762;SDS011;37512;52.408;13.356;2023-10-08T09:03:14;4.35;;;1.70;;
45762;SDS011;37512;52.408;13.356;2023-10-08T09:07:20;4.28;;;1.80;;
45762;SDS011;37512;52.408;13.356;2023-10-08T09:11:24;3.42;;;1.92;;
45762;SDS011;37512;52.408;13.356;2023-10-08T09:15:28;1.70;;;0.95;;
45762;SDS011;37512;52.408;13.356;2023-10-08T09:19:35;2.63;;;1.20;;
45762;SDS011;37512;52.408;13.356;2023-10-08T09:23:41;3.72;;;1.30;;
45762;SDS011;37512;52.408;13.356;2023-10-08T09:27:54;3.65;;;1.88;;
45762;SDS011;37512;52.408;13.356;2023-10-08T09:31:57;2.20;;;1.00;;
45762;SDS011;37512;52.408;13.356;2023-10-08T09:35:59;15.00;;;8.80;;
45762;SDS011;37512;52.408;13.356;2023-10-08T09:40:03;3.40;;;1.65;;
45762;SDS011;37512;52.408;13.356;2023-10-08T09:44:10;5.43;;;1.80;;
45762;SDS011;37512;52.408;13.356;2023-10-08T09:48:15;1.80;;;1.05;;
45762;SDS011;37512;52.408;13.356;2023-10-08T09:52:18;2.75;;;1.02;;
45762;SDS011;37512;52.408;13.356;2023-10-08T09:56:24;2.05;;;1.00;;
45762;SDS011;37512;52.408;13.356;2023-10-08T10:00:30;3.63;;;2.00;;
45762;SDS011;37512;52.408;13.356;2023-10-08T10:04:33;2.95;;;1.10;;
45762;SDS011;37512;52.408;13.356;2023-10-08T10:08:36;3.90;;;1.40;;
45762;SDS011;37512;52.408;13.356;2023-10-08T10:12:38;2.25;;;1.02;;
45762;SDS011;37512;52.408;13.356;2023-10-08T10:16:41;2.35;;;1.02;;
45762;SDS011;37512;52.408;13.356;2023-10-08T10:20:51;1.92;;;0.85;;
45762;SDS011;37512;52.408;13.356;2023-10-08T10:24:59;3.78;;;1.60;;
45762;SDS011;37512;52.408;13.356;2023-10-08T10:29:19;7.32;;;3.40;;
45762;SDS011;37512;52.408;13.356;2023-10-08T10:33:29;12.82;;;6.82;;
45762;SDS011;37512;52.408;13.356;2023-10-08T10:37:32;1.83;;;1.10;;
45762;SDS011;37512;52.408;13.356;2023-10-08T10:41:47;3.55;;;1.10;;
45762;SDS011;37512;52.408;13.356;2023-10-08T10:45:49;5.03;;;1.67;;
45762;SDS011;37512;52.408;13.356;2023-10-08T10:49:52;3.20;;;1.23;;
45762;SDS011;37512;52.408;13.356;2023-10-08T10:53:57;4.75;;;1.55;;
45762;SDS011;37512;52.408;13.356;2023-10-08T10:58:02;2.97;;;0.90;;
45762;SDS011;37512;52.408;13.356;2023-10-08T11:02:13;2.63;;;0.88;;
45762;SDS011;37512;52.408;13.356;2023-10-08T11:06:32;2.55;;;1.10;;
45762;SDS011;37512;52.408;13.356;2023-10-08T11:10:37;9.18;;;5.63;;
45762;SDS011;37512;52.408;13.356;2023-10-08T11:14:39;2.45;;;1.23;;
45762;SDS011;37512;52.408;13.356;2023-10-08T11:18:47;2.08;;;1.00;;
45762;SDS011;37512;52.408;13.356;2023-10-08T11:22:52;4.80;;;1.77;;
45762;SDS011;37512;52.408;13.356;2023-10-08T11:26:55;4.18;;;1.63;;
45762;SDS011;37512;52.408;13.356;2023-10-08T11:31:16;2.75;;;1.40;;
45762;SDS011;37512;52.408;13.356;2023-10-08T11:35:21;3.35;;;1.00;;
45762;SDS011;37512;52.408;13.356;2023-10-08T11:39:23;1.90;;;0.80;;
45762;SDS011;37512;52.408;13.356;2023-10-08T11:43:24;2.00;;;1.13;;
45762;SDS011;37512;52.408;13.356;2023-10-08T11:47:26;3.75;;;1.90;;
45762;SDS011;37512;52.408;13.356;2023-10-08T11:51:36;8.77;;;4.95;;
45762;SDS011;37512;52.408;13.356;2023-10-08T11:55:38;1.50;;;0.90;;
45762;SDS011;37512;52.408;13.356;2023-10-08T11:59:43;3.78;;;1.20;;
45762;SDS011;37512;52.408;13.356;2023-10-08T12:03:48;4.32;;;1.58;;
45762;SDS011;37512;52.408;13.356;2023-10-08T12:07:53;2.10;;;1.13;;
45762;SDS011;37512;52.408;13.356;2023-10-08T12:12:01;2.85;;;1.30;;
45762;SDS011;37512;52.408;13.356;2023-10-08T12:16:07;2.00;;;1.15;;
45762;SDS011;37512;52.408;13.356;2023-10-08T12:20:15;3.00;;;1.30;;
45762;SDS011;37512;52.408;13.356;2023-10-08T12:24:28;2.00;;;1.00;;
45762;SDS011;37512;52.408;13.356;2023-10-08T12:28:30;2.50;;;0.90;;
45762;SDS011;37512;52.408;13.356;2023-10-08T12:32:31;2.10;;;1.20;;
45762;SDS011;37512;52.408;13.356;2023-10-08T12:36:33;2.83;;;1.10;;
45762;SDS011;37512;52.408;13.356;2023-10-08T12:40:37;2.92;;;1.23;;
45762;SDS011;37512;52.408;13.356;2023-10-08T12:44:54;4.13;;;0.98;;
45762;SDS011;37512;52.408;13.356;2023-10-08T12:48:58;3.10;;;1.05;;
45762;SDS011;37512;52.408;13.356;2023-10-08T12:53:02;1.90;;;0.95;;
45762;SDS011;37512;52.408;13.356;2023-10-08T12:57:05;5.45;;;3.63;;
45762;SDS011;37512;52.408;13.356;2023-10-08T13:01:10;3.05;;;1.00;;
45762;SDS011;37512;52.408;13.356;2023-10-08T13:05:12;1.98;;;1.00;;
45762;SDS011;37512;52.408;13.356;2023-10-08T13:09:17;1.50;;;0.80;;
45762;SDS011;37512;52.408;13.356;2023-10-08T13:13:21;2.20;;;1.20;;
45762;SDS011;37512;52.408;13.356;2023-10-08T13:17:27;1.83;;;0.93;;
45762;SDS011;37512;52.408;13.356;2023-10-08T13:21:30;2.45;;;1.00;;
45762;SDS011;37512;52.408;13.356;2023-10-08T13:25:33;2.03;;;1.02;;
45762;SDS011;37512;52.408;13.356;2023-10-08T13:29:40;2.05;;;1.00;;
45762;SDS011;37512;52.408;13.356;2023-10-08T13:33:42;5.22;;;1.20;;
45762;SDS011;37512;52.408;13.356;2023-10-08T13:37:50;2.77;;;1.37;;
45762;SDS011;37512;52.408;13.356;2023-10-08T13:41:51;1.92;;;0.95;;
45762;SDS011;37512;52.408;13.356;2023-10-08T13:45:54;1.55;;;0.90;;
45762;SDS011;37512;52.408;13.356;2023-10-08T13:49:55;3.30;;;2.25;;
45762;SDS011;37512;52.408;13.356;2023-10-08T13:53:59;4.07;;;2.65;;
45762;SDS011;37512;52.408;13.356;2023-10-08T13:58:01;1.95;;;1.05;;
45762;SDS011;37512;52.408;13.356;2023-10-08T14:02:03;2.17;;;0.80;;
45762;SDS011;37512;52.408;13.356;2023-10-08T14:06:15;3.85;;;1.33;;
45762;SDS011;37512;52.408;13.356;2023-10-08T14:10:22;2.92;;;1.50;;
45762;SDS011;37512;52.408;13.356;2023-10-08T14:14:30;2.73;;;1.07;;
45762;SDS011;37512;52.408;13.356;2023-10-08T14:18:32;3.47;;;1.40;;
45762;SDS011;37512;52.408;13.356;2023-10-08T14:22:41;1.55;;;0.90;;
45762;SDS011;37512;52.408;13.356;2023-10-08T14:26:45;2.03;;;1.08;;
45762;SDS011;37512;52.408;13.356;2023-10-08T14:30:53;1.83;;;0.90;;
45762;SDS011;37512;52.408;13.356;2023-10-08T14:34:57;2.42;;;1.10;;
45762;SDS011;37512;52.408;13.356;2023-10-08T14:38:58;2.05;;;1.45;;
45762;SDS011;37512;52.408;13.356;2023-10-08T14:43:18;14.82;;;9.00;;
45762;SDS011;37512;52.408;13.356;2023-10-08T14:47:24;2.53;;;1.30;;
45762;SDS011;37512;52.408;13.356;2023-10-08T14:51:26;3.60;;;2.08;;
45762;SDS011;37512;52.408;13.356;2023-10-08T14:55:27;2.13;;;1.00;;
45762;SDS011;37512;52.408;13.356;2023-10-08T14:59:31;1.63;;;0.85;;
45762;SDS011;37512;52.408;13.356;2023-10-08T15:03:33;2.78;;;1.00;;
45762;SDS011;37512;52.408;13.356;2023-10-08T15:07:38;2.45;;;1.05;;
45762;SDS011;37512;52.408;13.356;2023-10-08T15:11:40;2.55;;;1.27;;
45762;SDS011;37512;52.408;13.356;2023-10-08T15:15:42;2.03;;;1.10;;
45762;SDS011;37512;52.408;13.356;2023-10-08T15:19:44;2.78;;;1.10;;
45762;SDS011;37512;52.408;13.356;2023-10-08T15:23:47;2.42;;;1.10;;
45762;SDS011;37512;52.408;13.356;2023-10-08T15:27:49;2.80;;;1.10;;
45762;SDS011;37512;52.408;13.356;2023-10-08T15:31:50;4.13;;;2.10;;
45762;SDS011;37512;52.408;13.356;2023-10-08T15:35:53;2.13;;;0.93;;
45762;SDS011;37512;52.408;13.356;2023-10-08T15:39:54;5.20;;;1.00;;
45762;SDS011;37512;52.408;13.356;2023-10-08T15:43:57;2.70;;;1.02;;
45762;SDS011;37512;52.408;13.356;2023-10-08T15:48:01;3.40;;;1.38;;
45762;SDS011;37512;52.408;13.356;2023-10-08T15:52:03;2.78;;;1.05;;
45762;SDS011;37512;52.408;13.356;2023-10-08T15:56:05;4.95;;;1.80;;
45762;SDS011;37512;52.408;13.356;2023-10-08T16:00:07;9.88;;;3.88;;
45762;SDS011;37512;52.408;13.356;2023-10-08T16:04:09;5.07;;;2.65;;
45762;SDS011;37512;52.408;13.356;2023-10-08T16:08:11;5.70;;;3.08;;
45762;SDS011;37512;52.408;13.356;2023-10-08T16:12:13;7.32;;;3.17;;
45762;SDS011;37512;52.408;13.356;2023-10-08T16:16:14;4.35;;;1.30;;
45762;SDS011;37512;52.408;13.356;2023-10-08T16:20:16;3.15;;;1.98;;
45762;SDS011;37512;52.408;13.356;2023-10-08T16:24:19;2.72;;;1.48;;
45762;SDS011;37512;52.408;13.356;2023-10-08T16:28:20;2.95;;;1.60;;
45762;SDS011;37512;52.408;13.356;2023-10-08T16:32:22;4.70;;;1.70;;
45762;SDS011;37512;52.408;13.356;2023-10-08T16:36:24;13.27;;;8.45;;
45762;SDS011;37512;52.408;13.356;2023-10-08T16:40:25;4.13;;;2.15;;
45762;SDS011;37512;52.408;13.356;2023-10-08T16:44:27;3.28;;;1.90;;
45762;SDS011;37512;52.408;13.356;2023-10-08T16:48:29;3.72;;;1.95;;
45762;SDS011;37512;52.408;13.356;2023-10-08T16:52:30;4.38;;;2.22;;
45762;SDS011;37512;52.408;13.356;2023-10-08T16:56:32;5.18;;;2.90;;
45762;SDS011;37512;52.408;13.356;2023-10-08T17:00:33;4.57;;;3.00;;
45762;SDS011;37512;52.408;13.356;2023-10-08T17:04:36;7.78;;;3.53;;
45762;SDS011;37512;52.408;13.356;2023-10-08T17:08:37;7.90;;;4.28;;
45762;SDS011;37512;52.408;13.356;2023-10-08T17:12:42;8.43;;;4.88;;
45762;SDS011;37512;52.408;13.356;2023-10-08T17:16:44;8.27;;;4.40;;
45762;SDS011;37512;52.408;13.356;2023-10-08T17:20:46;10.35;;;4.78;;
45762;SDS011;37512;52.408;13.356;2023-10-08T17:24:47;8.43;;;4.45;;
45762;SDS011;37512;52.408;13.356;2023-10-08T17:28:49;6.35;;;3.70;;
45762;SDS011;37512;52.408;13.356;2023-10-08T17:32:50;5.80;;;3.83;;
45762;SDS011;37512;52.408;13.356;2023-10-08T17:36:54;6.68;;;4.13;;
45762;SDS011;37512;52.408;13.356;2023-10-08T17:40:55;7.65;;;3.80;;
45762;SDS011;37512;52.408;13.356;2023-10-08T17:44:57;10.93;;;4.47;;
45762;SDS011;37512;52.408;13.356;2023-10-08T17:49:00;10.05;;;6.03;;
45762;SDS011;37512;52.408;13.356;2023-10-08T17:53:02;8.55;;;5.22;;
45762;SDS011;37512;52.408;13.356;2023-10-08T17:57:05;12.10;;;6.10;;
45762;SDS011;37512;52.408;13.356;2023-10-08T18:01:08;11.02;;;6.45;;
45762;SDS011;37512;52.408;13.356;2023-10-08T18:05:15;11.35;;;8.00;;
45762;SDS011;37512;52.408;13.356;2023-10-08T18:09:17;8.85;;;6.72;;
45762;SDS011;37512;52.408;13.356;2023-10-08T18:13:22;8.65;;;5.85;;
45762;SDS011;37512;52.408;13.356;2023-10-08T18:17:29;10.20;;;6.20;;
45762;SDS011;37512;52.408;13.356;2023-10-08T18:21:30;9.95;;;6.68;;
45762;SDS011;37512;52.408;13.356;2023-10-08T18:25:33;12.45;;;7.63;;
45762;SDS011;37512;52.408;13.356;2023-10-08T18:29:35;10.02;;;5.68;;
45762;SDS011;37512;52.408;13.356;2023-10-08T18:33:38;12.13;;;6.20;;
45762;SDS011;37512;52.408;13.356;2023-10-08T18:37:42;16.15;;;8.48;;
45762;SDS011;37512;52.408;13.356;2023-10-08T18:41:45;12.15;;;7.32;;
45762;SDS011;37512;52.408;13.356;2023-10-08T18:45:48;9.50;;;4.97;;
45762;SDS011;37512;52.408;13.356;2023-10-08T18:49:50;6.38;;;3.28;;
45762;SDS011;37512;52.408;13.356;2023-10-08T18:54:04;8.15;;;5.15;;
45762;SDS011;37512;52.408;13.356;2023-10-08T18:58:07;8.10;;;4.80;;
45762;SDS011;37512;52.408;13.356;2023-10-08T19:02:09;6.30;;;3.03;;
45762;SDS011;37512;52.408;13.356;2023-10-08T19:06:11;5.50;;;3.17;;
45762;SDS011;37512;52.408;13.356;2023-10-08T19:10:13;5.07;;;2.80;;
45762;SDS011;37512;52.408;13.356;2023-10-08T19:14:16;4.03;;;2.45;;
45762;SDS011;37512;52.408;13.356;2023-10-08T19:18:18;4.50;;;2.47;;
45762;SDS011;37512;52.408;13.356;2023-10-08T19:22:20;5.35;;;2.67;;
45762;SDS011;37512;52.408;13.356;2023-10-08T19:26:21;7.72;;;3.40;;
45762;SDS011;37512;52.408;13.356;2023-10-08T19:30:32;8.02;;;4.22;;
45762;SDS011;37512;52.408;13.356;2023-10-08T19:34:37;5.82;;;4.38;;
45762;SDS011;37512;52.408;13.356;2023-10-08T19:38:40;9.00;;;4.93;;
45762;SDS011;37512;52.408;13.356;2023-10-08T19:42:42;10.00;;;4.40;;
45762;SDS011;37512;52.408;13.356;2023-10-08T19:46:46;10.07;;;4.85;;
45762;SDS011;37512;52.408;13.356;2023-10-08T19:50:48;9.40;;;4.90;;
45762;SDS011;37512;52.408;13.356;2023-10-08T19:54:52;8.60;;;5.25;;
45762;SDS011;37512;52.408;13.356;2023-10-08T19:58:53;8.20;;;5.22;;
45762;SDS011;37512;52.408;13.356;2023-10-08T20:02:56;7.40;;;5.00;;
45762;SDS011;37512;52.408;13.356;2023-10-08T20:06:59;12.63;;;6.15;;
45762;SDS011;37512;52.408;13.356;2023-10-08T20:11:00;9.13;;;5.70;;
45762;SDS011;37512;52.408;13.356;2023-10-08T20:15:03;8.30;;;4.57;;
45762;SDS011;37512;52.408;13.356;2023-10-08T20:19:05;8.45;;;4.93;;
45762;SDS011;37512;52.408;13.356;2023-10-08T20:23:06;8.45;;;4.85;;
45762;SDS011;37512;52.408;13.356;2023-10-08T20:27:11;6.68;;;4.30;;
45762;SDS011;37512;52.408;13.356;2023-10-08T20:31:16;5.13;;;3.65;;
45762;SDS011;37512;52.408;13.356;2023-10-08T20:35:17;7.28;;;3.97;;
45762;SDS011;37512;52.408;13.356;2023-10-08T20:39:20;7.47;;;4.70;;
45762;SDS011;37512;52.408;13.356;2023-10-08T20:43:30;9.77;;;5.47;;
45762;SDS011;37512;52.408;13.356;2023-10-08T20:47:34;7.05;;;4.53;;
45762;SDS011;37512;52.408;13.356;2023-10-08T20:51:39;7.47;;;4.88;;
45762;SDS011;37512;52.408;13.356;2023-10-08T20:55:42;4.07;;;2.72;;
45762;SDS011;37512;52.408;13.356;2023-10-08T20:59:45;6.85;;;4.25;;
45762;SDS011;37512;52.408;13.356;2023-10-08T21:03:47;4.60;;;3.17;;
45762;SDS011;37512;52.408;13.356;2023-10-08T21:07:49;5.22;;;3.30;;
45762;SDS011;37512;52.408;13.356;2023-10-08T21:11:51;9.02;;;4.13;;
45762;SDS011;37512;52.408;13.356;2023-10-08T21:15:52;5.88;;;3.53;;
45762;SDS011;37512;52.408;13.356;2023-10-08T21:19:55;6.40;;;3.75;;
45762;SDS011;37512;52.408;13.356;2023-10-08T21:23:58;5.72;;;2.90;;
45762;SDS011;37512;52.408;13.356;2023-10-08T21:28:00;5.35;;;3.03;;
45762;SDS011;37512;52.408;13.356;2023-10-08T21:32:03;8.23;;;3.83;;
45762;SDS011;37512;52.408;13.356;2023-10-08T21:36:05;6.50;;;3.33;;
45762;SDS011;37512;52.408;13.356;2023-10-08T21:40:07;3.58;;;2.45;;
45762;SDS011;37512;52.408;13.356;2023-10-08T21:44:11;7.38;;;2.65;;
45762;SDS011;37512;52.408;13.356;2023-10-08T21:48:13;6.60;;;3.60;;
45762;SDS011;37512;52.408;13.356;2023-10-08T21:52:16;6.45;;;3.22;;
45762;SDS011;37512;52.408;13.356;2023-10-08T21:56:18;5.97;;;3.40;;
45762;SDS011;37512;52.408;13.356;2023-10-08T22:00:20;5.95;;;3.10;;
45762;SDS011;37512;52.408;13.356;2023-10-08T22:04:23;6.30;;;2.90;;
45762;SDS011;37512;52.408;13.356;2023-10-08T22:08:26;5.38;;;3.03;;
45762;SDS011;37512;52.408;13.356;2023-10-08T22:12:29;5.18;;;3.60;;
45762;SDS011;37512;52.408;13.356;2023-10-08T22:16:32;5.72;;;3.25;;
45762;SDS011;37512;52.408;13.356;2023-10-08T22:20:34;4.75;;;3.13;;
45762;SDS011;37512;52.408;13.356;2023-10-08T22:24:39;6.70;;;3.22;;
45762;SDS011;37512;52.408;13.356;2023-10-08T22:28:41;6.97;;;3.15;;
45762;SDS011;37512;52.408;13.356;2023-10-08T22:32:44;5.13;;;3.00;;
45762;SDS011;37512;52.408;13.356;2023-10-08T22:36:46;5.28;;;3.08;;
45762;SDS011;37512;52.408;13.356;2023-10-08T22:40:49;6.05;;;3.28;;
45762;SDS011;37512;52.408;13.356;2023-10-08T22:44:59;6.70;;;3.63;;
45762;SDS011;37512;52.408;13.356;2023-10-08T22:49:16;8.00;;;3.60;;
45762;SDS011;37512;52.408;13.356;2023-10-08T22:53:18;5.28;;;2.85;;
45762;SDS011;37512;52.408;13.356;2023-10-08T22:57:20;5.50;;;2.88;;
45762;SDS011;37512;52.408;13.356;2023-10-08T23:01:24;5.22;;;2.65;;
45762;SDS011;37512;52.408;13.356;2023-10-08T23:05:29;5.95;;;2.83;;
45762;SDS011;37512;52.408;13.356;2023-10-08T23:09:33;6.28;;;2.92;;
45762;SDS011;37512;52.408;13.356;2023-10-08T23:13:38;4.72;;;3.05;;
45762;SDS011;37512;52.408;13.356;2023-10-08T23:17:40;3.40;;;2.05;;
45762;SDS011;37512;52.408;13.356;2023-10-08T23:21:43;4.05;;;2.00;;
45762;SDS011;37512;52.408;13.356;2023-10-08T23:25:49;3.53;;;2.38;;
45762;SDS011;37512;52.408;13.356;2023-10-08T23:29:51;5.28;;;2.45;;
45762;SDS011;37512;52.408;13.356;2023-10-08T23:33:52;4.30;;;2.15;;
45762;SDS011;37512;52.408;13.356;2023-10-08T23:37:56;5.05;;;2.40;;
45762;SDS011;37512;52.408;13.356;2023-10-08T23:42:08;5.82;;;2.50;;
45762;SDS011;37512;52.408;13.356;2023-10-08T23:46:33;3.92;;;2.58;;
45762;SDS011;37512;52.408;13.356;2023-10-08T23:50:35;4.93;;;2.45;;
45762;SDS011;37512;52.408;13.356;2023-10-08T23:54:43;5.82;;;2.47;;
45762;SDS011;37512;52.408;13.356;2023-10-08T23:58:45;3.67;;;2.25;;
